sensor_id;sensor_type;location;lat;lon;timestamp;P1;P2;P0
56360;PMS7003;42611;51.132;13.588;2023-05-31T00:03:01;3.0;2.8;
56360;PMS7003;42611;51.132;13.588;2023-05-31T00:08:01;3.6;3.2;
56360;PMS7003;42611;51.132;13.588;2023-05-31T00:13:01;4.2;3.8;
56360;PMS7003;42611;51.132;13.588;2023-05-31T00:23:01;4.3;3.9;
56360;PMS7003;42611;51.132;13.588;2023-05-31T00:33:02;3.9;3.9;
56360;PMS7003;42611;51.132;13.588;2023-05-31T00:38:04;3.7;3.7;
56360;PMS7003;42611;51.132;13.588;2023-05-31T00:43:01;3.4;3.4;
56360;PMS7003;42611;51.132;13.588;2023-05-31T00:48:02;3.8;3.5;
56360;PMS7003;42611;51.132;13.588;2023-05-31T00:53:04;3.9;3.6;
56360;PMS7003;42611;51.132;13.588;2023-05-31T00:58:01;4.5;4.1;
56360;PMS7003;42611;51.132;13.588;2023-05-31T01:03:01;4.4;4.1;
56360;PMS7003;42611;51.132;13.588;2023-05-31T01:08:01;4.0;3.7;
56360;PMS7003;42611;51.132;13.588;2023-05-31T01:13:12;3.5;3.4;
56360;PMS7003;42611;51.132;13.588;2023-05-31T01:18:04;4.1;3.6;
56360;PMS7003;42611;51.132;13.588;2023-05-31T01:28:02;4.6;3.7;
56360;PMS7003;42611;51.132;13.588;2023-05-31T01:33:01;5.2;4.1;
56360;PMS7003;42611;51.132;13.588;2023-05-31T01:38:02;5.6;4.6;
56360;PMS7003;42611;51.132;13.588;2023-05-31T01:43:01;4.7;4.2;
56360;PMS7003;42611;51.132;13.588;2023-05-31T01:48:02;5.0;4.4;
56360;PMS7003;42611;51.132;13.588;2023-05-31T01:53:03;4.9;4.4;
56360;PMS7003;42611;51.132;13.588;2023-05-31T02:08:01;5.5;4.9;
56360;PMS7003;42611;51.132;13.588;2023-05-31T02:13:02;5.2;4.7;
56360;PMS7003;42611;51.132;13.588;2023-05-31T02:18:02;5.1;4.7;
56360;PMS7003;42611;51.132;13.588;2023-05-31T02:23:01;5.2;4.9;
56360;PMS7003;42611;51.132;13.588;2023-05-31T02:28:01;5.7;5.3;
56360;PMS7003;42611;51.132;13.588;2023-05-31T02:33:01;5.5;5.2;
56360;PMS7003;42611;51.132;13.588;2023-05-31T02:38:02;5.9;4.8;
56360;PMS7003;42611;51.132;13.588;2023-05-31T02:43:01;6.1;4.9;
56360;PMS7003;42611;51.132;13.588;2023-05-31T02:48:01;5.8;4.6;
56360;PMS7003;42611;51.132;13.588;2023-05-31T02:53:01;5.5;4.5;
56360;PMS7003;42611;51.132;13.588;2023-05-31T02:58:01;6.0;5.0;
56360;PMS7003;42611;51.132;13.588;2023-05-31T03:03:02;5.8;5.6;
56360;PMS7003;42611;51.132;13.588;2023-05-31T03:08:01;5.6;5.6;
56360;PMS7003;42611;51.132;13.588;2023-05-31T03:13:01;6.2;6.2;
56360;PMS7003;42611;51.132;13.588;2023-05-31T03:18:02;6.8;6.8;
56360;PMS7003;42611;51.132;13.588;2023-05-31T03:23:01;6.2;6.2;
56360;PMS7003;42611;51.132;13.588;2023-05-31T03:28:01;6.6;6.4;
56360;PMS7003;42611;51.132;13.588;2023-05-31T03:33:01;6.4;6.2;
56360;PMS7003;42611;51.132;13.588;2023-05-31T03:38:01;6.8;6.3;
56360;PMS7003;42611;51.132;13.588;2023-05-31T03:43:01;6.9;6.4;
56360;PMS7003;42611;51.132;13.588;2023-05-31T03:49:01;7.2;6.6;
56360;PMS7003;42611;51.132;13.588;2023-05-31T03:54:01;7.6;7.2;
56360;PMS7003;42611;51.132;13.588;2023-05-31T03:59:01;8.8;8.3;
56360;PMS7003;42611;51.132;13.588;2023-05-31T04:04:04;8.6;8.2;
56360;PMS7003;42611;51.132;13.588;2023-05-31T04:09:01;8.7;8.0;
56360;PMS7003;42611;51.132;13.588;2023-05-31T04:14:01;9.4;8.4;
56360;PMS7003;42611;51.132;13.588;2023-05-31T04:19:01;9.6;8.3;
56360;PMS7003;42611;51.132;13.588;2023-05-31T04:24:01;9.7;8.6;
56360;PMS7003;42611;51.132;13.588;2023-05-31T04:29:01;9.9;9.0;
56360;PMS7003;42611;51.132;13.588;2023-05-31T04:34:02;9.6;9.0;
56360;PMS7003;42611;51.132;13.588;2023-05-31T04:39:01;9.5;9.2;
56360;PMS7003;42611;51.132;13.588;2023-05-31T04:44:01;9.9;9.8;
56360;PMS7003;42611;51.132;13.588;2023-05-31T04:49:01;10.8;10.2;
56360;PMS7003;42611;51.132;13.588;2023-05-31T04:59:02;11.7;10.8;
56360;PMS7003;42611;51.132;13.588;2023-05-31T05:04:02;12.3;11.3;
56360;PMS7003;42611;51.132;13.588;2023-05-31T05:09:01;12.0;11.0;
56360;PMS7003;42611;51.132;13.588;2023-05-31T05:14:02;10.6;10.2;
56360;PMS7003;42611;51.132;13.588;2023-05-31T05:19:01;11.0;10.4;
56360;PMS7003;42611;51.132;13.588;2023-05-31T05:24:02;11.4;10.5;
56360;PMS7003;42611;51.132;13.588;2023-05-31T05:34:02;11.3;10.2;
56360;PMS7003;42611;51.132;13.588;2023-05-31T05:39:02;11.2;9.8;
56360;PMS7003;42611;51.132;13.588;2023-05-31T05:49:01;10.4;9.5;
56360;PMS7003;42611;51.132;13.588;2023-05-31T05:54:01;9.8;9.1;
56360;PMS7003;42611;51.132;13.588;2023-05-31T05:59:01;9.6;8.6;
56360;PMS7003;42611;51.132;13.588;2023-05-31T06:04:01;9.7;8.9;
56360;PMS7003;42611;51.132;13.588;2023-05-31T06:09:02;9.6;8.8;
56360;PMS7003;42611;51.132;13.588;2023-05-31T06:14:01;10.0;9.1;
56360;PMS7003;42611;51.132;13.588;2023-05-31T06:19:02;9.9;9.0;
56360;PMS7003;42611;51.132;13.588;2023-05-31T06:24:01;9.7;9.2;
56360;PMS7003;42611;51.132;13.588;2023-05-31T06:29:02;10.7;9.6;
56360;PMS7003;42611;51.132;13.588;2023-05-31T06:34:01;10.6;9.5;
56360;PMS7003;42611;51.132;13.588;2023-05-31T06:39:01;9.2;8.2;
56360;PMS7003;42611;51.132;13.588;2023-05-31T06:44:01;9.6;8.1;
56360;PMS7003;42611;51.132;13.588;2023-05-31T06:49:13;9.4;7.8;
56360;PMS7003;42611;51.132;13.588;2023-05-31T06:54:02;8.2;7.1;
56360;PMS7003;42611;51.132;13.588;2023-05-31T06:59:01;7.8;7.0;
56360;PMS7003;42611;51.132;13.588;2023-05-31T07:04:02;8.8;7.6;
56360;PMS7003;42611;51.132;13.588;2023-05-31T07:09:01;8.2;7.4;
56360;PMS7003;42611;51.132;13.588;2023-05-31T07:14:01;8.3;7.7;
56360;PMS7003;42611;51.132;13.588;2023-05-31T07:19:01;7.7;7.0;
56360;PMS7003;42611;51.132;13.588;2023-05-31T07:24:01;6.8;6.2;
56360;PMS7003;42611;51.132;13.588;2023-05-31T07:29:01;5.6;5.4;
56360;PMS7003;42611;51.132;13.588;2023-05-31T07:34:01;4.9;4.9;
56360;PMS7003;42611;51.132;13.588;2023-05-31T07:39:01;3.9;3.8;
56360;PMS7003;42611;51.132;13.588;2023-05-31T07:49:02;4.3;4.0;
56360;PMS7003;42611;51.132;13.588;2023-05-31T07:54:02;4.8;3.9;
56360;PMS7003;42611;51.132;13.588;2023-05-31T07:59:02;4.9;3.8;
56360;PMS7003;42611;51.132;13.588;2023-05-31T08:04:06;4.8;3.8;
56360;PMS7003;42611;51.132;13.588;2023-05-31T08:15:01;4.4;3.4;
56360;PMS7003;42611;51.132;13.588;2023-05-31T08:20:02;3.6;3.2;
56360;PMS7003;42611;51.132;13.588;2023-05-31T08:25:02;3.3;3.0;
56360;PMS7003;42611;51.132;13.588;2023-05-31T08:30:02;3.8;3.1;
56360;PMS7003;42611;51.132;13.588;2023-05-31T08:35:02;3.9;3.2;
56360;PMS7003;42611;51.132;13.588;2023-05-31T08:40:01;3.7;3.0;
56360;PMS7003;42611;51.132;13.588;2023-05-31T08:45:02;3.6;2.8;
56360;PMS7003;42611;51.132;13.588;2023-05-31T08:50:01;3.7;2.8;
56360;PMS7003;42611;51.132;13.588;2023-05-31T08:55:02;3.5;2.7;
56360;PMS7003;42611;51.132;13.588;2023-05-31T09:00:03;2.8;2.2;
56360;PMS7003;42611;51.132;13.588;2023-05-31T09:05:01;3.1;2.5;
56360;PMS7003;42611;51.132;13.588;2023-05-31T09:10:02;3.4;2.6;
56360;PMS7003;42611;51.132;13.588;2023-05-31T09:15:02;3.2;2.6;
56360;PMS7003;42611;51.132;13.588;2023-05-31T09:20:01;2.6;2.4;
56360;PMS7003;42611;51.132;13.588;2023-05-31T09:25:01;2.9;2.6;
56360;PMS7003;42611;51.132;13.588;2023-05-31T09:30:08;2.8;2.6;
56360;PMS7003;42611;51.132;13.588;2023-05-31T09:35:17;2.4;2.4;
56360;PMS7003;42611;51.132;13.588;2023-05-31T09:45:07;2.9;2.4;
56360;PMS7003;42611;51.132;13.588;2023-05-31T09:50:01;3.1;2.5;
56360;PMS7003;42611;51.132;13.588;2023-05-31T09:55:04;2.9;2.3;
56360;PMS7003;42611;51.132;13.588;2023-05-31T10:00:02;3.1;2.5;
56360;PMS7003;42611;51.132;13.588;2023-05-31T10:05:01;3.6;2.8;
56360;PMS7003;42611;51.132;13.588;2023-05-31T10:10:01;3.7;3.0;
56360;PMS7003;42611;51.132;13.588;2023-05-31T10:15:06;3.6;2.9;
56360;PMS7003;42611;51.132;13.588;2023-05-31T10:20:02;3.9;3.1;
56360;PMS7003;42611;51.132;13.588;2023-05-31T10:25:06;4.1;3.3;
56360;PMS7003;42611;51.132;13.588;2023-05-31T10:30:02;4.1;3.5;
56360;PMS7003;42611;51.132;13.588;2023-05-31T10:35:01;3.8;3.6;
56360;PMS7003;42611;51.132;13.588;2023-05-31T10:45:12;3.9;3.7;
56360;PMS7003;42611;51.132;13.588;2023-05-31T10:50:01;3.7;3.5;
56360;PMS7003;42611;51.132;13.588;2023-05-31T11:00:02;3.8;3.4;
56360;PMS7003;42611;51.132;13.588;2023-05-31T11:10:02;4.0;3.4;
56360;PMS7003;42611;51.132;13.588;2023-05-31T11:15:04;4.1;3.5;
56360;PMS7003;42611;51.132;13.588;2023-05-31T11:20:01;3.7;3.3;
56360;PMS7003;42611;51.132;13.588;2023-05-31T11:25:01;3.1;2.7;
56360;PMS7003;42611;51.132;13.588;2023-05-31T11:30:13;2.6;2.2;
56360;PMS7003;42611;51.132;13.588;2023-05-31T11:35:04;2.2;2.0;
56360;PMS7003;42611;51.132;13.588;2023-05-31T11:46:01;2.4;1.9;
56360;PMS7003;42611;51.132;13.588;2023-05-31T11:51:02;2.7;2.3;
56360;PMS7003;42611;51.132;13.588;2023-05-31T11:56:01;3.2;2.5;
56360;PMS7003;42611;51.132;13.588;2023-05-31T12:01:02;2.8;2.3;
56360;PMS7003;42611;51.132;13.588;2023-05-31T12:06:01;2.4;2.1;
56360;PMS7003;42611;51.132;13.588;2023-05-31T12:11:02;2.2;1.9;
56360;PMS7003;42611;51.132;13.588;2023-05-31T12:16:02;1.9;1.6;
56360;PMS7003;42611;51.132;13.588;2023-05-31T12:21:04;1.5;1.5;
56360;PMS7003;42611;51.132;13.588;2023-05-31T12:26:01;1.8;1.8;
56360;PMS7003;42611;51.132;13.588;2023-05-31T12:31:01;2.1;2.1;
56360;PMS7003;42611;51.132;13.588;2023-05-31T12:36:02;2.6;2.4;
56360;PMS7003;42611;51.132;13.588;2023-05-31T12:41:02;2.9;2.7;
56360;PMS7003;42611;51.132;13.588;2023-05-31T12:46:01;3.1;2.9;
56360;PMS7003;42611;51.132;13.588;2023-05-31T12:51:04;3.2;2.9;
56360;PMS7003;42611;51.132;13.588;2023-05-31T13:02:03;2.5;2.4;
56360;PMS7003;42611;51.132;13.588;2023-05-31T13:07:01;2.4;2.3;
56360;PMS7003;42611;51.132;13.588;2023-05-31T13:12:01;2.3;2.2;
56360;PMS7003;42611;51.132;13.588;2023-05-31T13:22:02;2.6;2.6;
56360;PMS7003;42611;51.132;13.588;2023-05-31T13:27:01;3.2;3.0;
56360;PMS7003;42611;51.132;13.588;2023-05-31T13:32:01;3.4;3.2;
56360;PMS7003;42611;51.132;13.588;2023-05-31T13:42:01;3.5;3.3;
56360;PMS7003;42611;51.132;13.588;2023-05-31T13:47:02;3.2;3.0;
56360;PMS7003;42611;51.132;13.588;2023-05-31T13:52:01;3.5;3.5;
56360;PMS7003;42611;51.132;13.588;2023-05-31T13:57:01;3.9;3.7;
56360;PMS7003;42611;51.132;13.588;2023-05-31T14:02:01;4.2;3.8;
56360;PMS7003;42611;51.132;13.588;2023-05-31T14:17:01;4.2;3.2;
56360;PMS7003;42611;51.132;13.588;2023-05-31T14:22:03;3.6;2.8;
56360;PMS7003;42611;51.132;13.588;2023-05-31T14:27:01;3.9;3.0;
56360;PMS7003;42611;51.132;13.588;2023-05-31T14:32:01;4.1;3.2;
56360;PMS7003;42611;51.132;13.588;2023-05-31T14:37:04;4.4;3.5;
56360;PMS7003;42611;51.132;13.588;2023-05-31T14:42:01;3.9;3.6;
56360;PMS7003;42611;51.132;13.588;2023-05-31T14:47:01;3.8;3.5;
56360;PMS7003;42611;51.132;13.588;2023-05-31T14:52:01;3.5;3.3;
56360;PMS7003;42611;51.132;13.588;2023-05-31T14:57:01;3.3;3.2;
56360;PMS7003;42611;51.132;13.588;2023-05-31T15:02:03;3.4;3.2;
56360;PMS7003;42611;51.132;13.588;2023-05-31T15:07:01;3.3;3.2;
56360;PMS7003;42611;51.132;13.588;2023-05-31T15:12:02;3.9;3.7;
56360;PMS7003;42611;51.132;13.588;2023-05-31T15:17:01;3.8;3.8;
56360;PMS7003;42611;51.132;13.588;2023-05-31T15:22:02;3.9;3.9;
56360;PMS7003;42611;51.132;13.588;2023-05-31T15:27:01;3.5;3.5;
56360;PMS7003;42611;51.132;13.588;2023-05-31T15:32:02;4.0;3.7;
56360;PMS7003;42611;51.132;13.588;2023-05-31T15:37:01;3.7;3.4;
56360;PMS7003;42611;51.132;13.588;2023-05-31T15:47:01;3.6;3.3;
56360;PMS7003;42611;51.132;13.588;2023-05-31T15:52:01;4.2;3.7;
56360;PMS7003;42611;51.132;13.588;2023-05-31T15:57:01;4.0;3.8;
56360;PMS7003;42611;51.132;13.588;2023-05-31T16:02:01;4.2;4.0;
56360;PMS7003;42611;51.132;13.588;2023-05-31T16:07:01;4.4;4.2;
56360;PMS7003;42611;51.132;13.588;2023-05-31T16:12:02;4.9;4.7;
56360;PMS7003;42611;51.132;13.588;2023-05-31T16:17:01;4.6;4.6;
56360;PMS7003;42611;51.132;13.588;2023-05-31T16:22:02;4.8;4.8;
56360;PMS7003;42611;51.132;13.588;2023-05-31T16:27:01;5.0;5.0;
56360;PMS7003;42611;51.132;13.588;2023-05-31T16:32:02;5.6;5.1;
56360;PMS7003;42611;51.132;13.588;2023-05-31T16:37:01;5.5;5.0;
56360;PMS7003;42611;51.132;13.588;2023-05-31T16:47:02;5.6;5.1;
56360;PMS7003;42611;51.132;13.588;2023-05-31T16:52:01;5.4;4.8;
56360;PMS7003;42611;51.132;13.588;2023-05-31T16:57:01;5.0;4.9;
56360;PMS7003;42611;51.132;13.588;2023-05-31T17:02:01;5.3;5.2;
56360;PMS7003;42611;51.132;13.588;2023-05-31T17:08:01;5.4;5.1;
56360;PMS7003;42611;51.132;13.588;2023-05-31T17:13:02;5.5;5.0;
56360;PMS7003;42611;51.132;13.588;2023-05-31T17:18:01;5.6;5.2;
56360;PMS7003;42611;51.132;13.588;2023-05-31T17:23:01;5.8;5.2;
56360;PMS7003;42611;51.132;13.588;2023-05-31T17:28:02;5.5;4.9;
56360;PMS7003;42611;51.132;13.588;2023-05-31T17:38:01;4.9;4.6;
56360;PMS7003;42611;51.132;13.588;2023-05-31T17:43:06;4.7;4.4;
56360;PMS7003;42611;51.132;13.588;2023-05-31T17:48:01;4.3;4.3;
56360;PMS7003;42611;51.132;13.588;2023-05-31T17:53:01;4.5;4.5;
56360;PMS7003;42611;51.132;13.588;2023-05-31T18:03:01;4.6;4.6;
56360;PMS7003;42611;51.132;13.588;2023-05-31T18:08:01;4.7;4.7;
56360;PMS7003;42611;51.132;13.588;2023-05-31T18:23:01;4.6;4.4;
56360;PMS7003;42611;51.132;13.588;2023-05-31T18:28:01;5.4;4.9;
56360;PMS7003;42611;51.132;13.588;2023-05-31T18:38:01;5.9;5.0;
56360;PMS7003;42611;51.132;13.588;2023-05-31T18:43:01;5.7;5.0;
56360;PMS7003;42611;51.132;13.588;2023-05-31T18:48:01;5.8;5.1;
56360;PMS7003;42611;51.132;13.588;2023-05-31T18:53:01;5.5;5.0;
56360;PMS7003;42611;51.132;13.588;2023-05-31T19:03:01;4.8;4.7;
56360;PMS7003;42611;51.132;13.588;2023-05-31T19:08:01;5.1;4.9;
56360;PMS7003;42611;51.132;13.588;2023-05-31T19:13:01;4.9;4.7;
56360;PMS7003;42611;51.132;13.588;2023-05-31T19:18:16;5.0;4.7;
56360;PMS7003;42611;51.132;13.588;2023-05-31T19:23:01;4.8;4.5;
56360;PMS7003;42611;51.132;13.588;2023-05-31T19:28:01;5.8;5.4;
56360;PMS7003;42611;51.132;13.588;2023-05-31T19:33:01;5.6;5.3;
56360;PMS7003;42611;51.132;13.588;2023-05-31T19:38:01;6.2;5.9;
56360;PMS7003;42611;51.132;13.588;2023-05-31T19:43:02;6.3;6.1;
56360;PMS7003;42611;51.132;13.588;2023-05-31T19:48:02;6.7;6.5;
56360;PMS7003;42611;51.132;13.588;2023-05-31T19:53:02;6.8;6.8;
56360;PMS7003;42611;51.132;13.588;2023-05-31T19:58:02;7.4;7.4;
56360;PMS7003;42611;51.132;13.588;2023-05-31T20:03:03;7.6;7.4;
56360;PMS7003;42611;51.132;13.588;2023-05-31T20:08:02;7.7;7.6;
56360;PMS7003;42611;51.132;13.588;2023-05-31T20:13:01;8.2;8.1;
56360;PMS7003;42611;51.132;13.588;2023-05-31T20:18:01;8.3;7.6;
56360;PMS7003;42611;51.132;13.588;2023-05-31T20:28:01;8.1;7.5;
56360;PMS7003;42611;51.132;13.588;2023-05-31T20:33:03;8.8;7.9;
56360;PMS7003;42611;51.132;13.588;2023-05-31T20:38:01;9.4;8.5;
56360;PMS7003;42611;51.132;13.588;2023-05-31T20:43:01;9.5;9.2;
56360;PMS7003;42611;51.132;13.588;2023-05-31T20:48:01;9.4;9.0;
56360;PMS7003;42611;51.132;13.588;2023-05-31T20:53:03;9.7;9.2;
56360;PMS7003;42611;51.132;13.588;2023-05-31T20:58:02;9.6;9.3;
56360;PMS7003;42611;51.132;13.588;2023-05-31T21:03:02;9.2;9.1;
56360;PMS7003;42611;51.132;13.588;2023-05-31T21:09:01;8.9;8.7;
56360;PMS7003;42611;51.132;13.588;2023-05-31T21:14:01;8.8;8.7;
56360;PMS7003;42611;51.132;13.588;2023-05-31T21:19:01;9.6;9.5;
56360;PMS7003;42611;51.132;13.588;2023-05-31T21:24:02;10.4;9.9;
56360;PMS7003;42611;51.132;13.588;2023-05-31T21:29:01;10.8;10.1;
56360;PMS7003;42611;51.132;13.588;2023-05-31T21:34:02;11.0;10.0;
56360;PMS7003;42611;51.132;13.588;2023-05-31T21:39:01;11.2;10.3;
56360;PMS7003;42611;51.132;13.588;2023-05-31T21:44:01;10.5;9.7;
56360;PMS7003;42611;51.132;13.588;2023-05-31T21:49:01;9.3;8.9;
56360;PMS7003;42611;51.132;13.588;2023-05-31T21:54:01;8.5;8.1;
56360;PMS7003;42611;51.132;13.588;2023-05-31T21:59:01;9.0;8.9;
56360;PMS7003;42611;51.132;13.588;2023-05-31T22:09:02;9.5;8.9;
56360;PMS7003;42611;51.132;13.588;2023-05-31T22:14:01;10.2;9.5;
56360;PMS7003;42611;51.132;13.588;2023-05-31T22:19:01;10.9;10.2;
56360;PMS7003;42611;51.132;13.588;2023-05-31T22:24:01;10.4;9.6;
56360;PMS7003;42611;51.132;13.588;2023-05-31T22:34:01;10.1;9.6;
56360;PMS7003;42611;51.132;13.588;2023-05-31T22:39:01;9.4;9.2;
56360;PMS7003;42611;51.132;13.588;2023-05-31T22:44:01;9.5;8.8;
56360;PMS7003;42611;51.132;13.588;2023-05-31T22:49:01;9.9;8.9;
56360;PMS7003;42611;51.132;13.588;2023-05-31T22:54:02;9.7;8.7;
56360;PMS7003;42611;51.132;13.588;2023-05-31T22:59:01;9.5;8.6;
56360;PMS7003;42611;51.132;13.588;2023-05-31T23:04:01;9.8;9.0;
56360;PMS7003;42611;51.132;13.588;2023-05-31T23:09:01;9.4;9.1;
56360;PMS7003;42611;51.132;13.588;2023-05-31T23:19:02;9.7;9.6;
56360;PMS7003;42611;51.132;13.588;2023-05-31T23:24:01;10.3;10.0;
56360;PMS7003;42611;51.132;13.588;2023-05-31T23:29:02;10.1;9.3;
56360;PMS7003;42611;51.132;13.588;2023-05-31T23:39:01;10.5;9.6;
56360;PMS7003;42611;51.132;13.588;2023-05-31T23:44:01;10.6;9.4;
56360;PMS7003;42611;51.132;13.588;2023-05-31T23:49:01;10.3;9.1;
56360;PMS7003;42611;51.132;13.588;2023-05-31T23:54:01;11.4;10.4;
56360;PMS7003;42611;51.132;13.588;2023-05-31T23:59:01;11.3;10.4;
